sensor_id;sensor_type;location;lat;lon;timestamp;pressure;altitude;pressure_sealevel;temperature;humidity
81961;BME280;71462;50.650;6.888;2023-07-13T00:01:50;99692.94;;;23.85;33.72
81961;BME280;71462;50.650;6.888;2023-07-13T00:03:53;99695.16;;;23.76;33.42
81961;BME280;71462;50.650;6.888;2023-07-13T00:05:59;99693.22;;;23.77;33.49
81961;BME280;71462;50.650;6.888;2023-07-13T00:08:04;99697.09;;;23.76;34.11
81961;BME280;71462;50.650;6.888;2023-07-13T00:10:08;99690.44;;;23.73;33.60
81961;BME280;71462;50.650;6.888;2023-07-13T00:12:22;99690.28;;;23.66;33.56
81961;BME280;71462;50.650;6.888;2023-07-13T00:14:27;99692.06;;;23.78;33.81
81961;BME280;71462;50.650;6.888;2023-07-13T00:16:30;99690.06;;;23.75;33.70
81961;BME280;71462;50.650;6.888;2023-07-13T00:18:32;99697.03;;;23.72;33.98
81961;BME280;71462;50.650;6.888;2023-07-13T00:20:35;99698.47;;;23.66;34.10
81961;BME280;71462;50.650;6.888;2023-07-13T00:22:37;99701.56;;;23.64;33.76
81961;BME280;71462;50.650;6.888;2023-07-13T00:24:41;99697.63;;;23.62;33.76
81961;BME280;71462;50.650;6.888;2023-07-13T00:26:44;99699.53;;;23.58;34.10
81961;BME280;71462;50.650;6.888;2023-07-13T00:28:47;99698.22;;;23.48;33.98
81961;BME280;71462;50.650;6.888;2023-07-13T00:30:50;99691.19;;;23.47;34.17
81961;BME280;71462;50.650;6.888;2023-07-13T00:32:52;99685.38;;;23.49;34.31
81961;BME280;71462;50.650;6.888;2023-07-13T00:35:14;99682.28;;;23.50;34.56
81961;BME280;71462;50.650;6.888;2023-07-13T00:37:17;99680.34;;;23.51;34.33
81961;BME280;71462;50.650;6.888;2023-07-13T00:39:20;99682.69;;;23.52;34.07
81961;BME280;71462;50.650;6.888;2023-07-13T00:41:25;99678.78;;;23.50;34.20
81961;BME280;71462;50.650;6.888;2023-07-13T00:43:28;99675.78;;;23.58;33.85
81961;BME280;71462;50.650;6.888;2023-07-13T00:48:25;99670.59;;;23.50;34.23
81961;BME280;71462;50.650;6.888;2023-07-13T00:50:28;99672.44;;;23.42;34.41
81961;BME280;71462;50.650;6.888;2023-07-13T00:52:31;99671.59;;;23.38;34.66
81961;BME280;71462;50.650;6.888;2023-07-13T00:54:37;99672.75;;;23.37;34.44
81961;BME280;71462;50.650;6.888;2023-07-13T00:56:41;99663.41;;;23.38;34.43
81961;BME280;71462;50.650;6.888;2023-07-13T00:58:46;99665.97;;;23.31;34.63
81961;BME280;71462;50.650;6.888;2023-07-13T01:00:48;99665.84;;;23.24;34.67
81961;BME280;71462;50.650;6.888;2023-07-13T01:02:52;99670.81;;;23.18;34.89
81961;BME280;71462;50.650;6.888;2023-07-13T01:04:56;99673.13;;;23.16;34.71
81961;BME280;71462;50.650;6.888;2023-07-13T01:06:59;99667.50;;;23.05;35.22
81961;BME280;71462;50.650;6.888;2023-07-13T01:09:02;99666.03;;;23.12;34.65
81961;BME280;71462;50.650;6.888;2023-07-13T01:11:04;99669.84;;;23.07;34.76
81961;BME280;71462;50.650;6.888;2023-07-13T01:13:09;99667.19;;;23.11;34.90
81961;BME280;71462;50.650;6.888;2023-07-13T01:15:37;99667.97;;;23.11;34.86
81961;BME280;71462;50.650;6.888;2023-07-13T01:17:40;99669.84;;;23.07;34.96
81961;BME280;71462;50.650;6.888;2023-07-13T01:19:44;99670.94;;;23.02;34.66
81961;BME280;71462;50.650;6.888;2023-07-13T01:21:52;99677.34;;;23.14;34.58
81961;BME280;71462;50.650;6.888;2023-07-13T01:23:55;99672.94;;;23.05;34.96
81961;BME280;71462;50.650;6.888;2023-07-13T01:25:58;99681.91;;;23.06;34.69
81961;BME280;71462;50.650;6.888;2023-07-13T01:28:01;99683.94;;;23.13;35.19
81961;BME280;71462;50.650;6.888;2023-07-13T01:30:05;99683.91;;;23.09;34.75
81961;BME280;71462;50.650;6.888;2023-07-13T01:32:08;99679.25;;;23.10;34.81
81961;BME280;71462;50.650;6.888;2023-07-13T01:34:10;99677.72;;;23.12;34.83
81961;BME280;71462;50.650;6.888;2023-07-13T01:36:13;99676.03;;;23.04;34.99
81961;BME280;71462;50.650;6.888;2023-07-13T01:38:19;99673.78;;;23.10;34.84
81961;BME280;71462;50.650;6.888;2023-07-13T01:40:21;99672.63;;;23.11;34.77
81961;BME280;71462;50.650;6.888;2023-07-13T01:42:24;99671.78;;;23.07;35.02
81961;BME280;71462;50.650;6.888;2023-07-13T01:44:27;99669.44;;;23.05;34.95
81961;BME280;71462;50.650;6.888;2023-07-13T01:46:30;99665.34;;;22.95;34.98
81961;BME280;71462;50.650;6.888;2023-07-13T01:48:32;99675.75;;;22.90;35.50
81961;BME280;71462;50.650;6.888;2023-07-13T01:50:36;99678.84;;;22.88;35.36
81961;BME280;71462;50.650;6.888;2023-07-13T01:52:38;99675.88;;;22.74;35.54
81961;BME280;71462;50.650;6.888;2023-07-13T01:54:42;99674.66;;;22.71;35.60
81961;BME280;71462;50.650;6.888;2023-07-13T01:56:45;99676.13;;;22.69;35.54
81961;BME280;71462;50.650;6.888;2023-07-13T01:58:48;99668.50;;;22.74;35.22
81961;BME280;71462;50.650;6.888;2023-07-13T02:00:51;99668.56;;;22.78;35.08
81961;BME280;71462;50.650;6.888;2023-07-13T02:02:54;99671.22;;;22.74;35.15
81961;BME280;71462;50.650;6.888;2023-07-13T02:04:57;99681.06;;;22.83;35.06
81961;BME280;71462;50.650;6.888;2023-07-13T02:06:59;99672.53;;;22.84;35.09
81961;BME280;71462;50.650;6.888;2023-07-13T02:09:01;99674.25;;;22.92;34.61
81961;BME280;71462;50.650;6.888;2023-07-13T02:11:05;99676.41;;;22.83;35.06
81961;BME280;71462;50.650;6.888;2023-07-13T02:13:08;99682.59;;;22.80;34.88
81961;BME280;71462;50.650;6.888;2023-07-13T02:15:11;99674.84;;;22.82;34.81
81961;BME280;71462;50.650;6.888;2023-07-13T02:17:13;99679.50;;;22.82;34.77
81961;BME280;71462;50.650;6.888;2023-07-13T02:19:15;99679.88;;;22.80;34.65
81961;BME280;71462;50.650;6.888;2023-07-13T02:21:18;99674.06;;;22.82;35.03
81961;BME280;71462;50.650;6.888;2023-07-13T02:23:21;99674.06;;;22.82;34.72
81961;BME280;71462;50.650;6.888;2023-07-13T02:25:24;99679.06;;;22.80;35.03
81961;BME280;71462;50.650;6.888;2023-07-13T02:27:29;99667.63;;;22.70;35.13
81961;BME280;71462;50.650;6.888;2023-07-13T02:29:32;99672.19;;;22.66;34.73
81961;BME280;71462;50.650;6.888;2023-07-13T02:31:35;99674.72;;;22.75;34.74
81961;BME280;71462;50.650;6.888;2023-07-13T02:33:38;99684.75;;;22.71;34.88
81961;BME280;71462;50.650;6.888;2023-07-13T02:35:40;99680.38;;;22.66;35.23
81961;BME280;71462;50.650;6.888;2023-07-13T02:37:43;99683.19;;;22.70;35.11
81961;BME280;71462;50.650;6.888;2023-07-13T02:39:45;99683.25;;;22.73;34.79
81961;BME280;71462;50.650;6.888;2023-07-13T02:41:49;99678.72;;;22.81;34.96
81961;BME280;71462;50.650;6.888;2023-07-13T02:43:53;99683.72;;;22.79;35.09
81961;BME280;71462;50.650;6.888;2023-07-13T02:45:58;99675.56;;;22.79;34.92
81961;BME280;71462;50.650;6.888;2023-07-13T02:48:05;99676.72;;;22.78;34.56
81961;BME280;71462;50.650;6.888;2023-07-13T02:50:08;99671.34;;;22.82;34.84
81961;BME280;71462;50.650;6.888;2023-07-13T02:52:11;99670.50;;;22.78;34.45
81961;BME280;71462;50.650;6.888;2023-07-13T02:54:14;99676.22;;;22.72;34.84
81961;BME280;71462;50.650;6.888;2023-07-13T02:56:15;99684.09;;;22.78;35.06
81961;BME280;71462;50.650;6.888;2023-07-13T02:58:19;99675.63;;;22.83;34.84
81961;BME280;71462;50.650;6.888;2023-07-13T03:00:23;99676.00;;;22.81;34.65
81961;BME280;71462;50.650;6.888;2023-07-13T03:02:26;99673.69;;;22.83;34.33
81961;BME280;71462;50.650;6.888;2023-07-13T03:04:29;99667.88;;;22.85;34.48
81961;BME280;71462;50.650;6.888;2023-07-13T03:06:33;99678.00;;;22.84;34.74
81961;BME280;71462;50.650;6.888;2023-07-13T03:08:35;99681.50;;;22.85;34.93
81961;BME280;71462;50.650;6.888;2023-07-13T03:10:38;99678.97;;;22.95;34.34
81961;BME280;71462;50.650;6.888;2023-07-13T03:12:42;99684.09;;;22.78;34.97
81961;BME280;71462;50.650;6.888;2023-07-13T03:14:45;99679.94;;;22.84;34.93
81961;BME280;71462;50.650;6.888;2023-07-13T03:16:49;99680.28;;;22.82;34.84
81961;BME280;71462;50.650;6.888;2023-07-13T03:18:52;99683.00;;;22.82;34.56
81961;BME280;71462;50.650;6.888;2023-07-13T03:20:54;99685.31;;;22.80;34.40
81961;BME280;71462;50.650;6.888;2023-07-13T03:22:57;99692.63;;;22.76;34.94
81961;BME280;71462;50.650;6.888;2023-07-13T03:25:00;99691.03;;;22.75;35.08
81961;BME280;71462;50.650;6.888;2023-07-13T03:27:04;99693.09;;;22.82;34.73
81961;BME280;71462;50.650;6.888;2023-07-13T03:29:07;99696.91;;;22.77;34.73
81961;BME280;71462;50.650;6.888;2023-07-13T03:31:11;99694.97;;;22.78;35.13
81961;BME280;71462;50.650;6.888;2023-07-13T03:33:16;99691.19;;;22.82;34.83
81961;BME280;71462;50.650;6.888;2023-07-13T03:35:18;99703.50;;;22.76;35.36
81961;BME280;71462;50.650;6.888;2023-07-13T03:37:21;99700.34;;;22.74;34.81
81961;BME280;71462;50.650;6.888;2023-07-13T03:39:24;99702.28;;;22.73;35.15
81961;BME280;71462;50.650;6.888;2023-07-13T03:41:26;99699.63;;;22.77;34.93
81961;BME280;71462;50.650;6.888;2023-07-13T03:43:29;99708.59;;;22.78;35.22
81961;BME280;71462;50.650;6.888;2023-07-13T03:45:31;99704.28;;;22.77;35.53
81961;BME280;71462;50.650;6.888;2023-07-13T03:47:34;99707.31;;;22.71;35.57
81961;BME280;71462;50.650;6.888;2023-07-13T03:49:38;99708.53;;;22.74;35.17
81961;BME280;71462;50.650;6.888;2023-07-13T03:51:40;99704.59;;;22.71;35.66
81961;BME280;71462;50.650;6.888;2023-07-13T03:53:45;99709.16;;;22.67;35.73
81961;BME280;71462;50.650;6.888;2023-07-13T03:55:48;99704.22;;;22.73;35.42
81961;BME280;71462;50.650;6.888;2023-07-13T03:57:58;99708.53;;;22.74;35.54
81961;BME280;71462;50.650;6.888;2023-07-13T04:00:02;99719.66;;;22.69;35.52
81961;BME280;71462;50.650;6.888;2023-07-13T04:02:05;99719.75;;;22.72;35.53
81961;BME280;71462;50.650;6.888;2023-07-13T04:04:07;99711.25;;;22.74;35.65
81961;BME280;71462;50.650;6.888;2023-07-13T04:06:16;99710.16;;;22.79;35.68
81961;BME280;71462;50.650;6.888;2023-07-13T04:08:22;99712.81;;;22.75;35.85
81961;BME280;71462;50.650;6.888;2023-07-13T04:10:24;99716.53;;;22.67;36.06
81961;BME280;71462;50.650;6.888;2023-07-13T04:12:27;99716.25;;;22.72;36.03
81961;BME280;71462;50.650;6.888;2023-07-13T04:14:31;99716.41;;;22.63;36.32
81961;BME280;71462;50.650;6.888;2023-07-13T04:16:34;99710.63;;;22.65;36.05
81961;BME280;71462;50.650;6.888;2023-07-13T04:18:37;99721.78;;;22.60;36.58
81961;BME280;71462;50.650;6.888;2023-07-13T04:20:39;99717.06;;;22.57;36.58
81961;BME280;71462;50.650;6.888;2023-07-13T04:22:43;99720.22;;;22.59;36.07
81961;BME280;71462;50.650;6.888;2023-07-13T04:24:45;99727.94;;;22.57;36.27
81961;BME280;71462;50.650;6.888;2023-07-13T04:26:48;99730.59;;;22.53;36.44
81961;BME280;71462;50.650;6.888;2023-07-13T04:28:51;99726.81;;;22.58;36.77
81961;BME280;71462;50.650;6.888;2023-07-13T04:30:54;99726.63;;;22.66;36.01
81961;BME280;71462;50.650;6.888;2023-07-13T04:32:57;99723.44;;;22.64;36.59
81961;BME280;71462;50.650;6.888;2023-07-13T04:34:59;99725.53;;;22.52;36.47
81961;BME280;71462;50.650;6.888;2023-07-13T04:37:03;99732.69;;;22.60;36.50
81961;BME280;71462;50.650;6.888;2023-07-13T04:39:07;99728.66;;;22.54;36.34
81961;BME280;71462;50.650;6.888;2023-07-13T04:41:10;99734.25;;;22.61;36.33
81961;BME280;71462;50.650;6.888;2023-07-13T04:43:13;99734.31;;;22.64;36.67
81961;BME280;71462;50.650;6.888;2023-07-13T04:45:15;99737.69;;;22.58;36.98
81961;BME280;71462;50.650;6.888;2023-07-13T04:47:18;99729.59;;;22.61;37.05
81961;BME280;71462;50.650;6.888;2023-07-13T04:49:21;99741.25;;;22.62;36.88
81961;BME280;71462;50.650;6.888;2023-07-13T04:51:24;99736.69;;;22.66;37.17
81961;BME280;71462;50.650;6.888;2023-07-13T04:53:27;99730.22;;;22.70;36.67
81961;BME280;71462;50.650;6.888;2023-07-13T04:55:32;99734.22;;;22.77;36.92
81961;BME280;71462;50.650;6.888;2023-07-13T04:57:35;99736.34;;;22.87;36.41
81961;BME280;71462;50.650;6.888;2023-07-13T04:59:37;99730.50;;;22.85;36.98
81961;BME280;71462;50.650;6.888;2023-07-13T05:01:40;99735.63;;;22.90;36.83
81961;BME280;71462;50.650;6.888;2023-07-13T05:03:42;99740.00;;;22.94;36.52
81961;BME280;71462;50.650;6.888;2023-07-13T05:05:54;99742.59;;;22.87;36.82
81961;BME280;71462;50.650;6.888;2023-07-13T05:07:57;99741.63;;;22.99;36.59
81961;BME280;71462;50.650;6.888;2023-07-13T05:10:00;99746.28;;;22.98;36.87
81961;BME280;71462;50.650;6.888;2023-07-13T05:12:05;99752.16;;;23.00;36.51
81961;BME280;71462;50.650;6.888;2023-07-13T05:14:08;99744.59;;;23.10;36.65
81961;BME280;71462;50.650;6.888;2023-07-13T05:16:11;99754.03;;;23.16;36.12
81961;BME280;71462;50.650;6.888;2023-07-13T05:18:14;99753.25;;;23.15;36.32
81961;BME280;71462;50.650;6.888;2023-07-13T05:20:18;99760.56;;;23.11;36.56
81961;BME280;71462;50.650;6.888;2023-07-13T05:22:21;99762.13;;;23.12;36.82
81961;BME280;71462;50.650;6.888;2023-07-13T05:24:24;99765.22;;;23.11;36.52
81961;BME280;71462;50.650;6.888;2023-07-13T05:26:26;99767.09;;;23.07;36.81
81961;BME280;71462;50.650;6.888;2023-07-13T05:28:31;99768.06;;;23.18;36.43
81961;BME280;71462;50.650;6.888;2023-07-13T05:30:34;99771.50;;;23.15;36.76
81961;BME280;71462;50.650;6.888;2023-07-13T05:32:37;99766.91;;;23.19;36.54
81961;BME280;71462;50.650;6.888;2023-07-13T05:34:40;99763.41;;;23.18;36.70
81961;BME280;71462;50.650;6.888;2023-07-13T05:36:42;99767.69;;;23.19;36.83
81961;BME280;71462;50.650;6.888;2023-07-13T05:38:45;99771.63;;;23.22;36.75
81961;BME280;71462;50.650;6.888;2023-07-13T05:40:48;99769.75;;;23.26;36.59
81961;BME280;71462;50.650;6.888;2023-07-13T05:42:50;99768.06;;;23.37;36.21
81961;BME280;71462;50.650;6.888;2023-07-13T05:44:54;99764.00;;;23.31;36.00
81961;BME280;71462;50.650;6.888;2023-07-13T05:46:57;99765.94;;;23.30;36.26
81961;BME280;71462;50.650;6.888;2023-07-13T05:49:00;99767.66;;;23.35;36.44
81961;BME280;71462;50.650;6.888;2023-07-13T05:51:02;99771.16;;;23.35;35.96
81961;BME280;71462;50.650;6.888;2023-07-13T05:53:05;99775.03;;;23.34;36.58
81961;BME280;71462;50.650;6.888;2023-07-13T05:55:08;99771.22;;;23.39;36.53
81961;BME280;71462;50.650;6.888;2023-07-13T05:57:11;99770.44;;;23.39;36.32
81961;BME280;71462;50.650;6.888;2023-07-13T05:59:13;99767.34;;;23.40;36.20
81961;BME280;71462;50.650;6.888;2023-07-13T06:01:17;99771.28;;;23.43;35.87
81961;BME280;71462;50.650;6.888;2023-07-13T06:03:21;99771.69;;;23.45;36.05
81961;BME280;71462;50.650;6.888;2023-07-13T06:05:24;99773.69;;;23.48;36.27
81961;BME280;71462;50.650;6.888;2023-07-13T06:07:27;99774.53;;;23.52;36.05
81961;BME280;71462;50.650;6.888;2023-07-13T06:09:29;99771.81;;;23.52;36.08
81961;BME280;71462;50.650;6.888;2023-07-13T06:11:31;99764.13;;;23.57;35.76
81961;BME280;71462;50.650;6.888;2023-07-13T06:13:34;99768.72;;;23.53;35.93
81961;BME280;71462;50.650;6.888;2023-07-13T06:15:36;99771.09;;;23.55;36.44
81961;BME280;71462;50.650;6.888;2023-07-13T06:17:40;99779.31;;;23.58;36.28
81961;BME280;71462;50.650;6.888;2023-07-13T06:19:43;99779.81;;;23.64;36.29
81961;BME280;71462;50.650;6.888;2023-07-13T06:21:46;99779.44;;;23.65;35.92
81961;BME280;71462;50.650;6.888;2023-07-13T06:23:48;99782.16;;;23.65;35.84
81961;BME280;71462;50.650;6.888;2023-07-13T06:25:51;99782.25;;;23.69;35.58
81961;BME280;71462;50.650;6.888;2023-07-13T06:27:54;99785.81;;;23.73;36.04
81961;BME280;71462;50.650;6.888;2023-07-13T06:29:57;99784.72;;;23.78;35.56
81961;BME280;71462;50.650;6.888;2023-07-13T06:31:59;99788.25;;;23.78;35.48
81961;BME280;71462;50.650;6.888;2023-07-13T06:34:03;99784.31;;;23.76;35.72
81961;BME280;71462;50.650;6.888;2023-07-13T06:36:07;99789.91;;;23.86;35.47
81961;BME280;71462;50.650;6.888;2023-07-13T06:38:10;99801.19;;;23.85;35.96
81961;BME280;71462;50.650;6.888;2023-07-13T06:40:13;99795.63;;;23.78;35.97
81961;BME280;71462;50.650;6.888;2023-07-13T06:42:16;99799.66;;;23.87;35.77
81961;BME280;71462;50.650;6.888;2023-07-13T06:44:19;99792.28;;;23.88;35.65
81961;BME280;71462;50.650;6.888;2023-07-13T06:46:22;99798.16;;;23.90;35.53
81961;BME280;71462;50.650;6.888;2023-07-13T06:48:25;99795.84;;;23.92;35.71
81961;BME280;71462;50.650;6.888;2023-07-13T06:50:29;99805.22;;;23.94;35.98
81961;BME280;71462;50.650;6.888;2023-07-13T06:52:32;99806.03;;;23.95;35.99
81961;BME280;71462;50.650;6.888;2023-07-13T06:54:35;99801.88;;;24.01;35.67
81961;BME280;71462;50.650;6.888;2023-07-13T06:56:37;99807.75;;;24.03;35.43
81961;BME280;71462;50.650;6.888;2023-07-13T06:58:40;99810.53;;;24.07;35.90
81961;BME280;71462;50.650;6.888;2023-07-13T07:00:43;99812.84;;;24.05;35.38
81961;BME280;71462;50.650;6.888;2023-07-13T07:02:45;99804.72;;;24.08;35.47
81961;BME280;71462;50.650;6.888;2023-07-13T07:04:48;99814.53;;;24.13;35.19
81961;BME280;71462;50.650;6.888;2023-07-13T07:06:52;99814.53;;;24.13;35.62
81961;BME280;71462;50.650;6.888;2023-07-13T07:08:59;99820.03;;;24.16;35.11
81961;BME280;71462;50.650;6.888;2023-07-13T07:11:02;99813.06;;;24.19;35.44
81961;BME280;71462;50.650;6.888;2023-07-13T07:13:04;99810.38;;;24.22;35.47
81961;BME280;71462;50.650;6.888;2023-07-13T07:15:07;99815.41;;;24.20;35.05
81961;BME280;71462;50.650;6.888;2023-07-13T07:17:10;99821.34;;;24.26;35.39
81961;BME280;71462;50.650;6.888;2023-07-13T07:19:13;99819.34;;;24.23;35.03
81961;BME280;71462;50.650;6.888;2023-07-13T07:21:16;99823.28;;;24.25;35.11
81961;BME280;71462;50.650;6.888;2023-07-13T07:23:20;99823.28;;;24.25;35.09
81961;BME280;71462;50.650;6.888;2023-07-13T07:25:23;99824.03;;;24.22;34.95
81961;BME280;71462;50.650;6.888;2023-07-13T07:27:25;99829.94;;;24.28;35.29
81961;BME280;71462;50.650;6.888;2023-07-13T07:29:30;99830.31;;;24.26;35.35
81961;BME280;71462;50.650;6.888;2023-07-13T07:31:35;99824.53;;;24.32;35.01
81961;BME280;71462;50.650;6.888;2023-07-13T07:33:41;99831.16;;;24.31;34.93
81961;BME280;71462;50.650;6.888;2023-07-13T07:35:44;99829.66;;;24.33;34.61
81961;BME280;71462;50.650;6.888;2023-07-13T07:38:07;99822.34;;;24.41;34.99
81961;BME280;71462;50.650;6.888;2023-07-13T07:40:12;99830.53;;;24.41;35.08
81961;BME280;71462;50.650;6.888;2023-07-13T07:42:17;99833.25;;;24.41;35.15
81961;BME280;71462;50.650;6.888;2023-07-13T07:44:20;99829.34;;;24.38;34.84
81961;BME280;71462;50.650;6.888;2023-07-13T07:46:23;99828.13;;;24.36;34.82
81961;BME280;71462;50.650;6.888;2023-07-13T07:48:25;99824.25;;;24.37;34.63
81961;BME280;71462;50.650;6.888;2023-07-13T07:50:28;99826.66;;;24.42;35.01
81961;BME280;71462;50.650;6.888;2023-07-13T07:52:31;99825.91;;;24.45;34.82
81961;BME280;71462;50.650;6.888;2023-07-13T07:54:34;99823.28;;;24.52;34.42
81961;BME280;71462;50.650;6.888;2023-07-13T07:56:41;99818.25;;;24.54;34.26
81961;BME280;71462;50.650;6.888;2023-07-13T07:59:03;99818.63;;;24.52;34.24
81961;BME280;71462;50.650;6.888;2023-07-13T08:01:09;99815.19;;;24.59;34.33
81961;BME280;71462;50.650;6.888;2023-07-13T08:03:14;99823.31;;;24.55;34.05
81961;BME280;71462;50.650;6.888;2023-07-13T08:05:20;99816.25;;;24.51;34.21
81961;BME280;71462;50.650;6.888;2023-07-13T08:07:40;99815.47;;;24.50;34.12
81961;BME280;71462;50.650;6.888;2023-07-13T08:09:42;99814.31;;;24.51;34.10
81961;BME280;71462;50.650;6.888;2023-07-13T08:11:46;99814.34;;;24.55;34.24
81961;BME280;71462;50.650;6.888;2023-07-13T08:13:52;99811.63;;;24.55;34.50
81961;BME280;71462;50.650;6.888;2023-07-13T08:15:56;99806.97;;;24.55;34.15
81961;BME280;71462;50.650;6.888;2023-07-13T08:18:00;99813.63;;;24.58;34.24
81961;BME280;71462;50.650;6.888;2023-07-13T08:20:03;99805.13;;;24.63;33.93
81961;BME280;71462;50.650;6.888;2023-07-13T08:22:06;99806.78;;;24.68;33.43
81961;BME280;71462;50.650;6.888;2023-07-13T08:24:09;99811.44;;;24.67;33.63
81961;BME280;71462;50.650;6.888;2023-07-13T08:26:11;99807.56;;;24.68;33.13
81961;BME280;71462;50.650;6.888;2023-07-13T08:28:16;99809.13;;;24.69;33.70
81961;BME280;71462;50.650;6.888;2023-07-13T08:30:18;99803.69;;;24.69;33.51
81961;BME280;71462;50.650;6.888;2023-07-13T08:32:22;99805.63;;;24.69;33.62
81961;BME280;71462;50.650;6.888;2023-07-13T08:34:26;99806.78;;;24.68;33.32
81961;BME280;71462;50.650;6.888;2023-07-13T08:36:29;99805.66;;;24.72;33.25
81961;BME280;71462;50.650;6.888;2023-07-13T08:38:31;99801.34;;;24.71;33.40
81961;BME280;71462;50.650;6.888;2023-07-13T08:40:34;99809.22;;;24.76;33.22
81961;BME280;71462;50.650;6.888;2023-07-13T08:42:39;99792.75;;;24.69;32.99
81961;BME280;71462;50.650;6.888;2023-07-13T08:44:54;99805.25;;;24.70;33.75
81961;BME280;71462;50.650;6.888;2023-07-13T08:47:01;99796.72;;;24.75;33.48
81961;BME280;71462;50.650;6.888;2023-07-13T08:49:06;99796.72;;;24.75;33.50
81961;BME280;71462;50.650;6.888;2023-07-13T08:51:24;99798.72;;;24.78;33.43
81961;BME280;71462;50.650;6.888;2023-07-13T08:53:34;99803.44;;;24.81;32.84
81961;BME280;71462;50.650;6.888;2023-07-13T08:55:38;99795.19;;;24.78;33.60
81961;BME280;71462;50.650;6.888;2023-07-13T08:57:43;99797.16;;;24.77;33.21
81961;BME280;71462;50.650;6.888;2023-07-13T08:59:48;99800.28;;;24.79;33.12
81961;BME280;71462;50.650;6.888;2023-07-13T09:02:01;99798.69;;;24.75;33.84
81961;BME280;71462;50.650;6.888;2023-07-13T09:04:12;99802.19;;;24.75;33.72
81961;BME280;71462;50.650;6.888;2023-07-13T09:06:16;99800.66;;;24.78;32.82
81961;BME280;71462;50.650;6.888;2023-07-13T09:08:31;99804.59;;;24.80;32.83
81961;BME280;71462;50.650;6.888;2023-07-13T09:10:41;99802.31;;;24.86;32.88
81961;BME280;71462;50.650;6.888;2023-07-13T09:12:55;99802.22;;;24.79;33.23
81961;BME280;71462;50.650;6.888;2023-07-13T09:15:02;99805.00;;;24.82;32.82
81961;BME280;71462;50.650;6.888;2023-07-13T09:17:13;99806.56;;;24.83;33.00
81961;BME280;71462;50.650;6.888;2023-07-13T09:19:21;99807.34;;;24.84;33.28
81961;BME280;71462;50.650;6.888;2023-07-13T09:21:31;99806.53;;;24.80;32.92
81961;BME280;71462;50.650;6.888;2023-07-13T09:23:35;99795.63;;;24.80;32.73
81961;BME280;71462;50.650;6.888;2023-07-13T09:25:40;99804.22;;;24.82;32.91
81961;BME280;71462;50.650;6.888;2023-07-13T09:27:50;99801.06;;;24.80;32.83
81961;BME280;71462;50.650;6.888;2023-07-13T09:30:04;99801.44;;;24.78;32.54
81961;BME280;71462;50.650;6.888;2023-07-13T09:32:14;99805.38;;;24.81;32.39
81961;BME280;71462;50.650;6.888;2023-07-13T09:34:21;99796.81;;;24.82;32.06
81961;BME280;71462;50.650;6.888;2023-07-13T09:36:25;99806.56;;;24.83;32.03
81961;BME280;71462;50.650;6.888;2023-07-13T09:38:29;99798.38;;;24.83;31.88
81961;BME280;71462;50.650;6.888;2023-07-13T09:40:46;99804.63;;;24.84;32.21
81961;BME280;71462;50.650;6.888;2023-07-13T09:42:52;99808.56;;;24.86;32.65
81961;BME280;71462;50.650;6.888;2023-07-13T09:44:57;99799.22;;;24.87;32.11
81961;BME280;71462;50.650;6.888;2023-07-13T09:47:02;99805.81;;;24.86;32.83
81961;BME280;71462;50.650;6.888;2023-07-13T09:49:05;99801.19;;;24.90;32.66
81961;BME280;71462;50.650;6.888;2023-07-13T09:51:13;99798.50;;;24.94;33.03
81961;BME280;71462;50.650;6.888;2023-07-13T09:53:18;99801.59;;;24.93;32.69
81961;BME280;71462;50.650;6.888;2023-07-13T09:55:28;99800.44;;;24.94;32.91
81961;BME280;71462;50.650;6.888;2023-07-13T09:57:31;99808.25;;;24.95;33.07
81961;BME280;71462;50.650;6.888;2023-07-13T09:59:52;99806.31;;;24.96;33.39
81961;BME280;71462;50.650;6.888;2023-07-13T10:01:55;99809.78;;;24.93;33.25
81961;BME280;71462;50.650;6.888;2023-07-13T10:03:59;99805.50;;;24.92;33.71
81961;BME280;71462;50.650;6.888;2023-07-13T10:06:11;99811.00;;;24.95;33.30
81961;BME280;71462;50.650;6.888;2023-07-13T10:08:18;99812.63;;;25.00;33.37
81961;BME280;71462;50.650;6.888;2023-07-13T10:10:22;99818.50;;;25.02;33.20
81961;BME280;71462;50.650;6.888;2023-07-13T10:12:25;99818.88;;;25.00;33.29
81961;BME280;71462;50.650;6.888;2023-07-13T10:14:28;99818.50;;;25.02;33.21
81961;BME280;71462;50.650;6.888;2023-07-13T10:16:33;99823.16;;;24.98;33.27
81961;BME280;71462;50.650;6.888;2023-07-13T10:18:41;99817.25;;;24.96;33.81
81961;BME280;71462;50.650;6.888;2023-07-13T10:20:47;99822.28;;;24.94;33.92
81961;BME280;71462;50.650;6.888;2023-07-13T10:22:54;99823.50;;;24.96;33.47
81961;BME280;71462;50.650;6.888;2023-07-13T10:25:00;99819.97;;;24.96;33.83
81961;BME280;71462;50.650;6.888;2023-07-13T10:27:10;99817.25;;;24.96;33.96
81961;BME280;71462;50.650;6.888;2023-07-13T10:29:16;99819.56;;;24.94;33.78
81961;BME280;71462;50.650;6.888;2023-07-13T10:31:20;99826.97;;;24.93;33.83
81961;BME280;71462;50.650;6.888;2023-07-13T10:33:23;99821.50;;;24.93;34.25
81961;BME280;71462;50.650;6.888;2023-07-13T10:35:28;99814.47;;;24.92;33.66
81961;BME280;71462;50.650;6.888;2023-07-13T10:37:39;99817.19;;;24.92;34.11
81961;BME280;71462;50.650;6.888;2023-07-13T10:39:43;99821.88;;;24.92;33.44
81961;BME280;71462;50.650;6.888;2023-07-13T10:41:50;99820.31;;;24.90;33.51
81961;BME280;71462;50.650;6.888;2023-07-13T10:43:55;99823.03;;;24.90;33.55
81961;BME280;71462;50.650;6.888;2023-07-13T10:46:00;99826.94;;;24.89;33.83
81961;BME280;71462;50.650;6.888;2023-07-13T10:48:05;99833.13;;;24.86;33.93
81961;BME280;71462;50.650;6.888;2023-07-13T10:50:17;99835.06;;;24.86;33.64
81961;BME280;71462;50.650;6.888;2023-07-13T10:52:45;99837.47;;;24.91;33.22
81961;BME280;71462;50.650;6.888;2023-07-13T10:54:48;99833.97;;;24.90;33.51
81961;BME280;71462;50.650;6.888;2023-07-13T10:56:53;99841.03;;;24.95;33.45
81961;BME280;71462;50.650;6.888;2023-07-13T10:59:12;99835.94;;;24.94;33.46
81961;BME280;71462;50.650;6.888;2023-07-13T11:01:18;99841.03;;;24.95;33.99
81961;BME280;71462;50.650;6.888;2023-07-13T11:03:22;99839.53;;;24.98;33.18